createdAt,value
2023-01-21T00:00:02.725Z,102435.06
2023-01-21T00:01:36.834Z,102434.09
2023-01-21T00:03:10.609Z,102437.44
2023-01-21T00:04:43.732Z,102445.84
2023-01-21T00:06:18.626Z,102453.47
2023-01-21T00:07:53.204Z,102453.38
2023-01-21T00:12:35.305Z,102461.97
2023-01-21T00:14:37.330Z,102467.81
2023-01-21T00:16:23.151Z,102464.53
2023-01-21T00:18:25.752Z,102473.94
2023-01-21T00:20:15.557Z,102479.19
2023-01-21T00:21:50.972Z,102486.00
2023-01-21T00:23:29.348Z,102488.47
2023-01-21T00:25:01.770Z,102487.47
2023-01-21T00:26:38.572Z,102489.25
2023-01-21T00:28:17.726Z,102487.59
2023-01-21T00:29:50.077Z,102494.22
2023-01-21T00:31:30.067Z,102492.53
2023-01-21T00:33:03.803Z,102495.09
2023-01-21T00:38:09.998Z,102500.84
2023-01-21T00:39:45.012Z,102499.16
2023-01-21T00:41:30.682Z,102504.28
2023-01-21T00:43:05.128Z,102506.63
2023-01-21T00:44:47.215Z,102503.97
2023-01-21T00:46:26.347Z,102504.84
2023-01-21T00:49:19.331Z,102508.41
2023-01-21T00:50:59.743Z,102510.09
2023-01-21T01:02:42.031Z,102529.75
2023-01-21T01:10:37.650Z,102531.84
2023-01-21T01:35:30.257Z,102582.63
2023-01-21T01:36:39.881Z,102582.53
2023-01-21T01:38:14.125Z,102589.44
2023-01-21T01:39:55.878Z,102590.22
2023-01-21T01:41:38.229Z,102592.09
2023-01-21T01:43:58.363Z,102583.50
2023-01-21T01:45:52.298Z,102591.22
2023-01-21T01:48:14.515Z,102601.50
2023-01-21T01:51:02.843Z,102603.28
2023-01-21T01:53:20.905Z,102616.03
2023-01-21T01:56:45.901Z,102612.66
2023-01-21T01:57:22.559Z,102607.63
2023-01-21T01:59:06.651Z,102615.22
2023-01-21T02:00:49.775Z,102626.19
2023-01-21T02:02:21.934Z,102627.97
2023-01-21T02:03:59.644Z,102628.88
2023-01-21T02:05:33.832Z,102637.38
2023-01-21T02:07:05.857Z,102642.41
2023-01-21T02:08:37.889Z,102648.22
2023-01-21T02:10:15.255Z,102643.97
2023-01-21T02:11:47.757Z,102641.41
2023-01-21T02:13:20.067Z,102651.69
2023-01-21T02:14:52.123Z,102655.72
2023-01-21T02:16:26.929Z,102649.78
2023-01-21T02:18:39.501Z,102656.72
2023-01-21T02:50:47.597Z,102675.34
2023-01-21T02:52:22.035Z,102682.16
2023-01-21T02:53:57.249Z,102676.13
2023-01-21T02:55:34.848Z,102683.81
2023-01-21T02:57:14.381Z,102690.84
2023-01-21T02:59:09.291Z,102694.19
2023-01-21T03:01:41.440Z,102692.72
2023-01-21T03:34:12.147Z,102725.38
2023-01-21T03:35:46.273Z,102728.38
2023-01-21T03:37:25.902Z,102728.53
2023-01-21T03:38:58.474Z,102725.81
2023-01-21T03:40:34.312Z,102729.31
2023-01-21T03:42:07.211Z,102733.66
2023-01-21T03:43:39.868Z,102731.09
2023-01-21T03:45:25.079Z,102728.38
2023-01-21T03:48:08.063Z,102732.88
2023-01-21T03:53:00.933Z,102742.47
2023-01-21T03:54:57.195Z,102755.19
2023-01-21T03:56:31.911Z,102755.09
2023-01-21T04:00:24.425Z,102755.31
2023-01-21T04:02:06.385Z,102754.63
2023-01-21T04:03:41.530Z,102757.97
2023-01-21T04:06:06.707Z,102761.44
2023-01-21T04:34:26.392Z,102775.75
2023-01-21T04:36:04.635Z,102781.66
2023-01-21T04:37:36.870Z,102774.84
2023-01-21T04:39:11.818Z,102780.09
2023-01-21T04:41:06.855Z,102771.59
2023-01-21T04:42:48.033Z,102785.44
2023-01-21T04:44:31.303Z,102773.38
2023-01-21T04:47:12.353Z,102776.16
2023-01-21T04:48:49.452Z,102780.19
2023-01-21T04:50:42.777Z,102773.50
2023-01-21T04:52:14.975Z,102774.28
2023-01-21T04:54:28.355Z,102782.88
2023-01-21T04:59:28.500Z,102778.41
2023-01-21T05:00:38.806Z,102779.31
2023-01-21T05:05:36.076Z,102780.19
2023-01-21T05:06:41.545Z,102779.63
2023-01-21T05:10:05.295Z,102787.22
2023-01-21T05:11:10.608Z,102783.88
2023-01-21T05:13:09.585Z,102788.91
2023-01-21T05:20:31.316Z,102803.53
2023-01-21T05:22:03.376Z,102800.19
2023-01-21T05:23:38.369Z,102807.91
2023-01-21T05:25:10.503Z,102801.75
2023-01-21T05:26:44.865Z,102802.53
2023-01-21T05:28:16.862Z,102801.66
2023-01-21T05:29:49.012Z,102803.44
2023-01-21T05:31:26.560Z,102808.34
2023-01-21T05:32:59.734Z,102811.91
2023-01-21T05:34:31.741Z,102820.50
2023-01-21T05:36:04.315Z,102815.16
2023-01-21T05:37:36.366Z,102821.84
2023-01-21T05:39:08.331Z,102826.78
2023-01-21T05:40:40.247Z,102822.63
2023-01-21T05:42:12.195Z,102828.56
2023-01-21T05:43:44.175Z,102827.66
2023-01-21T05:45:16.202Z,102836.38
2023-01-21T05:46:48.261Z,102835.47
2023-01-21T05:48:20.372Z,102834.47
2023-01-21T05:49:52.371Z,102831.78
2023-01-21T05:51:24.491Z,102836.16
2023-01-21T05:52:56.608Z,102835.13
2023-01-21T05:54:28.968Z,102842.28
2023-01-21T05:56:01.046Z,102837.81
2023-01-21T05:57:34.507Z,102847.31
2023-01-21T05:59:07.860Z,102849.09
2023-01-21T06:00:44.577Z,102850.66
2023-01-21T06:02:16.843Z,102845.63
2023-01-21T06:03:53.762Z,102853.34
2023-01-21T06:05:32.069Z,102865.28
2023-01-21T06:07:08.888Z,102859.34
2023-01-21T06:08:46.168Z,102865.94
2023-01-21T06:10:18.624Z,102872.09
2023-01-21T06:11:53.146Z,102871.19
2023-01-21T06:13:25.538Z,102871.97
2023-01-21T06:15:00.602Z,102885.69
2023-01-21T06:16:32.725Z,102876.22
2023-01-21T06:18:05.033Z,102879.00
2023-01-21T06:19:37.211Z,102889.38
2023-01-21T06:21:09.303Z,102879.56
2023-01-21T06:22:41.458Z,102884.91
2023-01-21T06:24:13.528Z,102885.69
2023-01-21T06:25:45.565Z,102886.47
2023-01-21T06:27:17.637Z,102894.97
2023-01-21T06:28:49.605Z,102896.63
2023-01-21T06:30:22.276Z,102900.09
2023-01-21T06:31:54.340Z,102900.09
2023-01-21T06:33:26.474Z,102902.31
2023-01-21T06:34:58.557Z,102905.66
2023-01-21T06:36:31.582Z,102910.13
2023-01-21T06:38:04.706Z,102911.81
2023-01-21T06:39:36.951Z,102905.66
2023-01-21T06:41:11.801Z,102909.25
2023-01-21T06:42:47.094Z,102910.13
2023-01-21T06:44:19.138Z,102914.38
2023-01-21T06:45:56.440Z,102916.16
2023-01-21T06:47:31.048Z,102920.41
2023-01-21T06:49:04.332Z,102916.72
2023-01-21T06:50:36.849Z,102929.78
2023-01-21T06:52:11.260Z,102923.63
2023-01-21T06:54:00.532Z,102924.63
2023-01-21T06:55:35.139Z,102932.34
2023-01-21T06:57:09.988Z,102929.44
2023-01-21T06:58:42.201Z,102934.44
2023-01-21T07:00:15.356Z,102931.00
2023-01-21T07:02:00.359Z,102933.31
2023-01-21T07:03:36.388Z,102930.88
2023-01-21T07:05:11.015Z,102943.03
2023-01-21T07:06:44.571Z,102943.69
2023-01-21T07:08:19.263Z,102948.06
2023-01-21T07:09:51.587Z,102954.75
2023-01-21T07:11:23.986Z,102956.53
2023-01-21T07:12:58.277Z,102959.88
2023-01-21T07:14:30.705Z,102955.53
2023-01-21T07:16:10.941Z,102967.81
2023-01-21T07:17:43.245Z,102961.91
2023-01-21T07:19:15.589Z,102963.56
2023-01-21T07:20:47.893Z,102965.47
2023-01-21T07:22:20.077Z,102961.34
2023-01-21T07:23:53.628Z,102960.56
2023-01-21T07:25:28.041Z,102967.81
2023-01-21T07:27:00.892Z,102962.69
2023-01-21T07:29:01.731Z,102964.34
2023-01-21T07:30:43.485Z,102966.25
2023-01-21T07:32:15.560Z,102972.06
2023-01-21T07:33:47.605Z,102969.59
2023-01-21T07:35:20.057Z,102970.38
2023-01-21T07:36:52.251Z,102974.84
2023-01-21T07:38:24.480Z,102977.75
2023-01-21T07:39:56.773Z,102977.53
2023-01-21T07:41:29.028Z,102979.31
2023-01-21T07:43:01.297Z,102983.56
2023-01-21T07:44:34.896Z,102986.00
2023-01-21T07:46:07.119Z,102982.00
2023-01-21T07:47:39.267Z,102985.00
2023-01-21T07:49:13.232Z,102991.91
2023-01-21T07:50:45.407Z,102988.09
2023-01-21T07:52:17.696Z,102997.59
2023-01-21T07:53:49.751Z,102995.03
2023-01-21T07:55:22.334Z,103000.94
2023-01-21T07:56:54.520Z,102992.47
2023-01-21T07:58:26.708Z,103001.94
2023-01-21T07:59:58.828Z,103005.28
2023-01-21T08:01:32.445Z,103007.19
2023-01-21T08:03:09.326Z,103010.13
2023-01-21T08:04:41.382Z,103008.22
2023-01-21T08:06:13.489Z,103018.03
2023-01-21T08:07:45.586Z,103019.59
2023-01-21T08:09:17.853Z,103025.75
2023-01-21T08:10:53.968Z,103024.72
2023-01-21T08:12:29.058Z,103021.50
2023-01-21T08:14:01.343Z,103035.22
2023-01-21T08:15:33.542Z,103031.22
2023-01-21T08:17:05.840Z,103034.56
2023-01-21T08:18:38.204Z,103043.06
2023-01-21T08:20:17.156Z,103033.69
2023-01-21T08:22:09.658Z,103042.38
2023-01-21T08:23:45.794Z,103045.19
2023-01-21T08:25:19.533Z,103047.63
2023-01-21T08:27:01.052Z,103046.97
2023-01-21T08:28:34.028Z,103048.53
2023-01-21T08:30:09.157Z,103057.34
2023-01-21T08:31:51.320Z,103061.72
2023-01-21T08:33:34.268Z,103061.94
2023-01-21T08:35:07.110Z,103062.84
2023-01-21T08:37:03.782Z,103063.75
2023-01-21T08:38:44.383Z,103068.44
2023-01-21T08:40:16.841Z,103073.47
2023-01-21T08:41:51.425Z,103080.50
2023-01-21T08:43:31.319Z,103080.72
2023-01-21T08:45:03.943Z,103086.66
2023-01-21T08:46:38.529Z,103087.66
2023-01-21T08:48:10.685Z,103095.59
2023-01-21T08:49:43.019Z,103098.16
2023-01-21T08:51:18.057Z,103096.63
2023-01-21T08:52:54.250Z,103099.31
2023-01-21T08:54:30.539Z,103104.69
2023-01-21T08:56:05.984Z,103111.84
2023-01-21T08:58:14.829Z,103118.00
2023-01-21T09:00:10.623Z,103119.66
2023-01-21T09:01:43.830Z,103114.53
2023-01-21T09:03:57.849Z,103130.16
2023-01-21T09:17:36.606Z,103137.31
2023-01-21T09:25:23.502Z,103144.06
2023-01-21T09:26:37.304Z,103145.63
2023-01-21T09:28:15.753Z,103148.53
2023-01-21T09:30:05.953Z,103142.72
2023-01-21T09:31:38.362Z,103145.53
2023-01-21T09:33:28.450Z,103151.78
2023-01-21T09:35:21.391Z,103144.31
2023-01-21T09:37:04.949Z,103153.03
2023-01-21T09:38:47.127Z,103148.34
2023-01-21T09:40:26.864Z,103150.16
2023-01-21T09:42:07.215Z,103157.09
2023-01-21T09:43:57.694Z,103161.56
2023-01-21T09:45:32.395Z,103160.22
2023-01-21T09:47:24.349Z,103158.00
2023-01-21T09:49:00.800Z,103165.06
2023-01-21T09:50:33.531Z,103159.00
2023-01-21T09:52:36.786Z,103161.59
2023-01-21T09:54:44.415Z,103166.28
2023-01-21T09:56:31.957Z,103172.31
2023-01-21T09:58:17.013Z,103168.84
2023-01-21T10:00:44.557Z,103169.97
2023-01-21T10:02:57.393Z,103170.97
2023-01-21T10:04:53.990Z,103170.19
2023-01-21T10:06:55.865Z,103173.22
2023-01-21T10:09:05.691Z,103181.84
2023-01-21T10:10:48.206Z,103172.56
2023-01-21T10:12:58.430Z,103181.06
2023-01-21T10:14:44.976Z,103175.47
2023-01-21T10:16:28.929Z,103174.00
2023-01-21T10:18:12.323Z,103181.06
2023-01-21T10:19:46.375Z,103172.78
2023-01-21T10:21:47.371Z,103179.50
2023-01-21T10:24:07.152Z,103182.06
2023-01-21T10:25:49.957Z,103170.19
2023-01-21T10:27:44.242Z,103172.66
2023-01-21T10:32:19.208Z,103168.78
2023-01-21T10:34:53.341Z,103169.13
2023-01-21T10:40:53.240Z,103171.69
2023-01-21T10:43:19.209Z,103162.50
2023-01-21T10:45:13.804Z,103163.84
2023-01-21T10:46:51.743Z,103164.97
2023-01-21T10:48:29.067Z,103153.88
2023-01-21T10:50:25.243Z,103154.22
2023-01-21T10:52:14.674Z,103161.25
2023-01-21T10:53:49.641Z,103156.44
2023-01-21T10:55:27.142Z,103161.81
2023-01-21T17:43:30.584Z,103253.66
2023-01-21T17:45:15.298Z,103250.09
2023-01-21T17:47:15.827Z,103246.63
2023-01-21T17:49:13.047Z,103256.59
2023-01-21T17:51:06.949Z,103265.22
2023-01-21T17:52:55.154Z,103256.81
2023-01-21T17:54:37.000Z,103258.38
2023-01-21T17:56:49.521Z,103256.81
2023-01-21T17:59:16.494Z,103264.44
2023-01-21T18:00:54.312Z,103259.84
2023-01-21T18:03:01.202Z,103265.22
2023-01-21T18:04:41.098Z,103265.22
2023-01-21T18:06:36.750Z,103262.75
2023-01-21T18:08:19.661Z,103260.41
2023-01-21T18:09:53.168Z,103262.06
2023-01-21T18:13:32.896Z,103260.50
2023-01-21T18:15:16.527Z,103264.88
2023-01-21T18:17:01.327Z,103268.44
2023-01-21T18:18:54.593Z,103270.91
2023-01-21T18:20:52.201Z,103270.81
2023-01-21T18:22:37.299Z,103269.91
2023-01-21T18:24:17.295Z,103272.38
2023-01-21T18:26:16.409Z,103283.47
2023-01-21T18:28:35.913Z,103281.78
2023-01-21T18:30:23.955Z,103280.22
2023-01-21T18:33:36.999Z,103274.72
2023-01-21T18:34:39.435Z,103276.41
2023-01-21T18:35:52.626Z,103276.19
2023-01-21T18:38:00.965Z,103277.75
2023-01-21T18:39:44.339Z,103281.34
2023-01-21T18:42:11.461Z,103278.66
2023-01-21T18:43:53.530Z,103272.50
2023-01-21T18:46:05.281Z,103278.44
2023-01-21T18:47:41.129Z,103265.44
2023-01-21T18:49:32.934Z,103275.06
2023-01-21T18:51:12.331Z,103276.75
2023-01-21T18:52:46.781Z,103272.63
2023-01-21T18:54:18.737Z,103272.28
2023-01-21T18:55:55.246Z,103272.63
2023-01-21T18:57:32.104Z,103273.28
2023-01-21T18:59:22.861Z,103273.28
2023-01-21T19:00:55.155Z,103271.28
2023-01-21T19:02:32.001Z,103268.13
2023-01-21T19:04:04.379Z,103275.53
2023-01-21T19:05:40.780Z,103276.22
2023-01-21T19:07:28.242Z,103271.28
2023-01-21T19:09:00.244Z,103264.34
2023-01-21T19:10:32.726Z,103269.47
2023-01-21T19:12:05.105Z,103273.47
2023-01-21T19:13:37.103Z,103266.53
2023-01-21T19:15:25.124Z,103262.28
2023-01-21T19:16:57.075Z,103260.50
2023-01-21T19:18:29.127Z,103261.19
2023-01-21T19:20:04.609Z,103258.50
2023-01-21T19:21:36.750Z,103270.56
2023-01-21T19:23:17.697Z,103262.84
2023-01-21T19:24:50.762Z,103273.16
2023-01-21T19:26:22.753Z,103265.44
2023-01-21T19:27:56.406Z,103268.78
2023-01-21T19:29:30.041Z,103276.28
2023-01-21T19:31:04.891Z,103267.91
2023-01-21T19:32:37.377Z,103282.09
2023-01-21T19:34:10.569Z,103270.13
2023-01-21T19:35:45.780Z,103279.53
2023-01-21T19:37:21.560Z,103270.03
2023-01-21T19:38:57.984Z,103276.06
2023-01-21T19:40:30.419Z,103275.28
2023-01-21T19:42:08.595Z,103272.06
2023-01-21T19:43:43.029Z,103275.88
2023-01-21T19:45:16.219Z,103281.22
2023-01-21T19:46:48.181Z,103281.22
2023-01-21T19:48:21.487Z,103277.66
2023-01-21T19:49:53.383Z,103275.97
2023-01-21T19:51:25.508Z,103271.72
2023-01-21T19:52:57.704Z,103273.50
2023-01-21T19:54:29.854Z,103264.22
2023-01-21T19:56:02.178Z,103270.38
2023-01-21T19:57:37.297Z,103263.53
2023-01-21T19:59:13.154Z,103263.66
2023-01-21T20:00:48.514Z,103269.69
2023-01-21T20:02:20.579Z,103269.00
2023-01-21T20:04:00.342Z,103277.53
2023-01-21T20:05:35.072Z,103267.22
2023-01-21T20:07:07.402Z,103269.00
2023-01-21T20:08:39.350Z,103270.81
2023-01-21T20:10:18.338Z,103278.75
2023-01-21T20:11:50.423Z,103272.59
2023-01-21T20:13:22.584Z,103274.38
2023-01-21T20:14:54.610Z,103271.81
2023-01-21T20:16:27.096Z,103269.34
2023-01-21T20:18:00.603Z,103270.25
2023-01-21T20:19:32.625Z,103271.91
2023-01-21T20:21:05.097Z,103270.13
2023-01-21T20:22:37.164Z,103271.91
2023-01-21T20:24:09.798Z,103274.50
2023-01-21T20:25:46.668Z,103271.03
2023-01-21T20:27:18.842Z,103267.44
2023-01-21T20:28:52.671Z,103265.75
2023-01-21T20:30:30.477Z,103263.97
2023-01-21T20:32:04.045Z,103262.06
2023-01-21T20:33:36.709Z,103263.75
2023-01-21T20:35:08.959Z,103261.28
2023-01-21T20:36:41.931Z,103258.72
2023-01-21T20:38:55.891Z,103266.34
2023-01-21T20:40:36.968Z,103254.47
2023-01-21T20:42:12.435Z,103258.59
2023-01-21T20:43:47.751Z,103260.97
2023-01-21T20:45:52.769Z,103246.06
2023-01-21T20:47:16.706Z,103247.75
2023-01-21T20:48:54.196Z,103249.31
2023-01-21T20:50:31.800Z,103259.63
2023-01-21T20:52:06.958Z,103258.72
2023-01-21T20:53:39.391Z,103256.06
2023-01-21T20:55:12.682Z,103264.78
2023-01-21T20:56:45.874Z,103259.63
2023-01-21T20:58:19.132Z,103260.53
2023-01-21T20:59:51.100Z,103257.06
2023-01-21T21:01:25.300Z,103256.16
2023-01-21T21:02:57.925Z,103258.72
2023-01-21T21:04:30.222Z,103254.25
2023-01-21T21:06:16.478Z,103257.72
2023-01-21T21:07:48.498Z,103260.19
2023-01-21T21:09:22.142Z,103265.34
2023-01-21T21:10:55.587Z,103268.69
2023-01-21T21:12:27.569Z,103270.38
2023-01-21T21:14:01.969Z,103262.66
2023-01-21T21:15:36.552Z,103259.19
2023-01-21T21:17:14.447Z,103253.94
2023-01-21T21:18:46.779Z,103250.47
2023-01-21T21:20:22.356Z,103251.34
2023-01-21T21:21:54.925Z,103254.69
2023-01-21T21:23:26.929Z,103259.06
2023-01-21T21:24:58.976Z,103254.81
2023-01-21T21:26:31.717Z,103250.47
2023-01-21T21:28:03.854Z,103258.19
2023-01-21T21:29:38.350Z,103252.88
2023-01-21T21:31:12.935Z,103250.19
2023-01-21T21:32:46.235Z,103254.56
2023-01-21T21:34:24.099Z,103247.53
2023-01-21T21:35:56.444Z,103251.78
2023-01-21T21:37:28.593Z,103247.41
2023-01-21T21:39:04.019Z,103248.09
2023-01-21T21:40:41.184Z,103247.06
2023-01-21T21:42:34.352Z,103247.06
2023-01-21T21:44:08.043Z,103247.19
2023-01-21T21:46:00.386Z,103261.63
2023-01-21T21:47:50.861Z,103259.94
2023-01-21T21:49:23.222Z,103270.13
2023-01-21T21:50:58.322Z,103266.88
2023-01-21T21:52:31.538Z,103267.66
2023-01-21T21:54:05.528Z,103270.25
2023-01-21T21:55:37.810Z,103275.28
2023-01-21T21:57:14.380Z,103266.56
2023-01-21T21:58:55.838Z,103265.66
2023-01-21T22:00:28.937Z,103261.19
2023-01-21T22:02:21.428Z,103267.13
2023-01-21T22:04:15.895Z,103267.22
2023-01-21T22:06:05.010Z,103263.75
2023-01-21T22:08:31.720Z,103263.88
2023-01-21T22:13:22.286Z,103266.00
2023-01-21T22:17:37.051Z,103261.53
2023-01-21T22:20:29.276Z,103262.19
2023-01-21T22:22:01.597Z,103261.28
2023-01-21T22:23:35.053Z,103250.78
2023-01-21T22:25:12.045Z,103251.69
2023-01-21T22:26:48.058Z,103249.53
2023-01-21T22:28:20.432Z,103255.38
2023-01-21T22:29:52.355Z,103249.31
2023-01-21T22:31:26.842Z,103250.88
2023-01-21T22:32:58.937Z,103249.09
2023-01-21T22:34:30.996Z,103250.56
2023-01-21T22:36:06.128Z,103254.03
2023-01-21T22:37:38.077Z,103252.13
2023-01-21T22:39:11.922Z,103250.22
2023-01-21T22:40:43.852Z,103257.16
2023-01-21T22:42:15.813Z,103251.22
2023-01-21T22:43:50.230Z,103243.28
2023-01-21T22:45:23.834Z,103244.16
2023-01-21T22:46:56.083Z,103238.75
2023-01-21T22:48:29.207Z,103235.28
2023-01-21T22:50:05.782Z,103238.91
2023-01-21T22:51:39.030Z,103246.38
2023-01-21T22:53:14.118Z,103248.03
2023-01-21T22:54:46.580Z,103251.50
2023-01-21T22:56:31.393Z,103238.53
2023-01-21T22:58:12.464Z,103251.50
2023-01-21T22:59:44.523Z,103249.72
2023-01-21T23:01:25.738Z,103244.69
2023-01-21T23:02:58.957Z,103245.59
2023-01-21T23:04:31.044Z,103240.09
2023-01-21T23:06:07.300Z,103238.31
2023-01-21T23:07:41.809Z,103234.72
2023-01-21T23:09:18.066Z,103228.47
2023-01-21T23:10:50.123Z,103232.81
2023-01-21T23:12:22.078Z,103227.78
2023-01-21T23:13:54.709Z,103223.53
2023-01-21T23:15:26.702Z,103227.78
2023-01-21T23:16:58.740Z,103224.09
2023-01-21T23:18:34.197Z,103225.00
2023-01-21T23:20:09.683Z,103216.03
2023-01-21T23:21:42.216Z,103218.63
2023-01-21T23:23:19.573Z,103222.88
2023-01-21T23:24:54.816Z,103220.19
2023-01-21T23:26:27.188Z,103219.50
2023-01-21T23:27:59.469Z,103220.19
2023-01-21T23:29:31.734Z,103218.38
2023-01-21T23:31:10.412Z,103225.09
2023-01-21T23:32:44.438Z,103224.19
2023-01-21T23:34:16.826Z,103213.69
2023-01-21T23:35:56.663Z,103212.13
2023-01-21T23:37:28.994Z,103212.00
2023-01-21T23:39:01.214Z,103219.84
2023-01-21T23:40:33.426Z,103218.28
2023-01-21T23:42:08.239Z,103219.06
2023-01-21T23:43:41.167Z,103213.91
2023-01-21T23:45:13.312Z,103220.28
2023-01-21T23:46:45.678Z,103222.41
2023-01-21T23:48:26.382Z,103225.53
2023-01-21T23:49:58.818Z,103224.41
2023-01-21T23:51:35.265Z,103221.84
2023-01-21T23:53:18.159Z,103214.91
2023-01-21T23:54:55.998Z,103218.38
2023-01-21T23:56:30.856Z,103217.47
2023-01-21T23:58:17.332Z,103221.06
2023-01-21T23:59:50.146Z,103211.66
